Time;durP1;ratioP1;P1;durP2;ratioP2;P2;SDS_P1;SDS_P2;PMS_P1;PMS_P2;Temp;Humidity;BMP_temperature;BMP_pressure;BME280_temperature;BME280_humidity;BME280_pressure;Samples;Min_cycle;Max_cycle;Signal;HPM_P1;HPM_P2
2021/09/11 00:01:04;;;;;;;;;;;18.80;69.20;;;;;;490062;242;1182;-43
2021/09/11 00:03:05;;;;;;;;;;;18.80;69.30;;;;;;490162;242;1137;-43
2021/09/11 00:05:07;;;;;;;;;;;18.80;69.20;;;;;;490240;242;1211;-43
2021/09/11 00:07:08;;;;;;;;;;;18.70;69.10;;;;;;490214;242;1219;-43
2021/09/11 00:09:09;;;;;;;;;;;18.70;69.20;;;;;;490166;242;1226;-43
2021/09/11 00:11:11;;;;;;;;;;;18.80;69.20;;;;;;490180;242;2173;-44
2021/09/11 00:13:12;;;;;;;;;;;18.80;69.10;;;;;;490079;242;1173;-44
2021/09/11 00:15:13;;;;;;;;;;;18.80;69.30;;;;;;490572;242;1041;-43
2021/09/11 00:17:15;;;;;;;;;;;18.70;69.20;;;;;;490204;242;1227;-43
2021/09/11 00:19:16;;;;;;;;;;;18.80;69.10;;;;;;490130;242;1202;-43
2021/09/11 00:21:17;;;;;;;;;;;18.80;69.20;;;;;;490101;242;1502;-44
2021/09/11 00:23:19;;;;;;;;;;;18.80;69.20;;;;;;490596;242;1189;-43
2021/09/11 00:25:20;;;;;;;;;;;18.80;69.10;;;;;;490364;242;1258;-44
2021/09/11 00:27:21;;;;;;;;;;;18.80;69.20;;;;;;490474;242;1110;-44
2021/09/11 00:29:23;;;;;;;;;;;18.80;69.20;;;;;;490467;242;1202;-44
2021/09/11 00:31:24;;;;;;;;;;;18.80;69.20;;;;;;490241;242;2180;-43
2021/09/11 00:33:26;;;;;;;;;;;18.80;69.10;;;;;;490463;242;1030;-43
2021/09/11 00:35:28;;;;;;;;;;;18.80;69.10;;;;;;490236;242;1065;-44
2021/09/11 00:37:29;;;;;;;;;;;18.80;69.10;;;;;;490058;242;1173;-44
2021/09/11 00:39:30;;;;;;;;;;;18.70;69.30;;;;;;490166;242;1000;-43
2021/09/11 00:41:31;;;;;;;;;;;18.70;69.20;;;;;;490548;242;1343;-44
2021/09/11 00:43:34;;;;;;;;;;;18.70;69.40;;;;;;490639;242;1047;-43
2021/09/11 00:45:34;;;;;;;;;;;18.70;69.40;;;;;;490088;243;2195;-44
2021/09/11 00:47:36;;;;;;;;;;;18.70;69.40;;;;;;490253;242;1118;-43
2021/09/11 00:49:37;;;;;;;;;;;18.70;69.30;;;;;;490399;242;1237;-43
2021/09/11 00:51:38;;;;;;;;;;;18.70;69.30;;;;;;490286;242;2193;-43
2021/09/11 00:53:40;;;;;;;;;;;18.70;69.20;;;;;;490421;242;1260;-44
2021/09/11 00:55:41;;;;;;;;;;;18.80;69.20;;;;;;490182;242;1145;-44
2021/09/11 00:57:42;;;;;;;;;;;18.80;69.20;;;;;;490133;242;1187;-43
2021/09/11 00:59:44;;;;;;;;;;;18.70;69.20;;;;;;490575;242;1217;-44
2021/09/11 01:01:45;;;;;;;;;;;18.70;69.10;;;;;;490073;242;1219;-43
2021/09/11 01:03:46;;;;;;;;;;;18.70;69.30;;;;;;490121;242;1080;-44
2021/09/11 01:05:48;;;;;;;;;;;18.70;69.30;;;;;;490138;242;1151;-43
2021/09/11 01:07:49;;;;;;;;;;;18.70;69.30;;;;;;490572;242;1254;-43
2021/09/11 01:09:50;;;;;;;;;;;18.70;69.10;;;;;;490193;242;1146;-44
2021/09/11 01:11:52;;;;;;;;;;;18.70;69.10;;;;;;490503;242;2121;-44
2021/09/11 01:13:53;;;;;;;;;;;18.80;69.10;;;;;;490242;242;1232;-44
2021/09/11 01:15:54;;;;;;;;;;;18.80;69.00;;;;;;490101;242;1076;-44
2021/09/11 01:17:56;;;;;;;;;;;18.70;69.10;;;;;;490144;242;1186;-44
2021/09/11 01:19:57;;;;;;;;;;;18.70;69.20;;;;;;490608;242;1210;-43
2021/09/11 01:21:58;;;;;;;;;;;18.70;69.10;;;;;;490562;242;1262;-43
2021/09/11 01:24:00;;;;;;;;;;;18.70;69.20;;;;;;490127;242;1216;-44
2021/09/11 01:26:01;;;;;;;;;;;18.70;69.10;;;;;;490236;242;1228;-44
2021/09/11 01:28:02;;;;;;;;;;;18.70;69.20;;;;;;490050;242;1119;-44
2021/09/11 01:30:04;;;;;;;;;;;18.70;69.20;;;;;;490559;242;2185;-44
2021/09/11 01:32:05;;;;;;;;;;;18.70;69.30;;;;;;490248;242;1277;-44
2021/09/11 01:34:06;;;;;;;;;;;18.60;69.30;;;;;;490515;242;1139;-43
2021/09/11 01:36:07;;;;;;;;;;;18.70;69.40;;;;;;490468;242;1717;-43
2021/09/11 01:38:09;;;;;;;;;;;18.70;69.30;;;;;;490178;242;1251;-43
2021/09/11 01:40:10;;;;;;;;;;;18.70;69.30;;;;;;490515;242;1134;-44
2021/09/11 01:42:11;;;;;;;;;;;18.70;69.40;;;;;;490432;242;1319;-43
2021/09/11 01:44:13;;;;;;;;;;;18.60;69.40;;;;;;490339;242;1179;-43
2021/09/11 01:46:14;;;;;;;;;;;18.60;69.40;;;;;;490374;242;1336;-44
2021/09/11 01:48:15;;;;;;;;;;;18.70;69.40;;;;;;490153;242;1196;-43
2021/09/11 01:50:17;;;;;;;;;;;18.60;69.40;;;;;;490510;242;2153;-43
2021/09/11 01:52:18;;;;;;;;;;;18.70;69.50;;;;;;490034;242;1605;-43
2021/09/11 01:54:19;;;;;;;;;;;18.60;69.50;;;;;;490351;242;1104;-44
2021/09/11 01:56:21;;;;;;;;;;;18.70;69.40;;;;;;490278;242;1342;-43
2021/09/11 01:58:22;;;;;;;;;;;18.60;69.50;;;;;;490126;242;1223;-44
2021/09/11 02:00:23;;;;;;;;;;;18.70;69.40;;;;;;490606;242;1052;-43
2021/09/11 02:02:25;;;;;;;;;;;18.60;69.30;;;;;;490069;242;1486;-44
2021/09/11 02:04:26;;;;;;;;;;;18.70;69.30;;;;;;490128;242;1041;-44
2021/09/11 02:06:28;;;;;;;;;;;18.60;69.40;;;;;;490352;242;1298;-43
2021/09/11 02:08:29;;;;;;;;;;;18.60;69.50;;;;;;490118;242;1194;-43
2021/09/11 02:10:30;;;;;;;;;;;18.60;69.40;;;;;;490611;242;2129;-44
2021/09/11 02:12:31;;;;;;;;;;;18.70;69.40;;;;;;490006;242;1162;-43
2021/09/11 02:14:33;;;;;;;;;;;18.60;69.40;;;;;;490265;242;1165;-44
2021/09/11 02:16:34;;;;;;;;;;;18.70;69.40;;;;;;490243;242;1266;-43
2021/09/11 02:18:35;;;;;;;;;;;18.60;69.30;;;;;;490249;242;1176;-43
2021/09/11 02:20:36;;;;;;;;;;;18.60;69.50;;;;;;490181;242;1276;-43
2021/09/11 02:22:38;;;;;;;;;;;18.60;69.50;;;;;;490118;242;1169;-44
2021/09/11 02:24:39;;;;;;;;;;;18.60;69.50;;;;;;490599;242;1055;-43
2021/09/11 02:26:42;;;;;;;;;;;18.60;69.40;;;;;;489992;242;1187;-44
2021/09/11 02:28:43;;;;;;;;;;;18.70;69.40;;;;;;490414;242;1819;-44
2021/09/11 02:30:44;;;;;;;;;;;18.70;69.30;;;;;;490574;242;2177;-44
2021/09/11 02:32:46;;;;;;;;;;;18.70;69.30;;;;;;490564;242;1278;-43
2021/09/11 02:34:47;;;;;;;;;;;18.60;69.30;;;;;;490286;242;1046;-43
2021/09/11 02:36:48;;;;;;;;;;;18.60;69.40;;;;;;490278;242;1204;-43
2021/09/11 02:38:50;;;;;;;;;;;18.60;69.50;;;;;;490378;242;1239;-44
2021/09/11 02:40:51;;;;;;;;;;;18.60;69.30;;;;;;490402;242;1169;-43
2021/09/11 02:42:52;;;;;;;;;;;18.60;69.50;;;;;;490078;242;1175;-44
2021/09/11 02:44:54;;;;;;;;;;;18.60;69.50;;;;;;490179;242;1303;-44
2021/09/11 02:46:55;;;;;;;;;;;18.60;69.50;;;;;;490554;242;1233;-44
2021/09/11 02:48:56;;;;;;;;;;;18.60;69.50;;;;;;490621;242;1067;-43
2021/09/11 02:50:58;;;;;;;;;;;18.50;69.60;;;;;;490574;242;2188;-44
2021/09/11 02:52:59;;;;;;;;;;;18.60;69.50;;;;;;490501;242;1550;-44
2021/09/11 02:55:00;;;;;;;;;;;18.60;69.60;;;;;;490132;242;1191;-43
2021/09/11 02:57:01;;;;;;;;;;;18.60;69.60;;;;;;490028;242;1326;-44
2021/09/11 02:59:03;;;;;;;;;;;18.60;69.50;;;;;;490625;242;1173;-43
2021/09/11 03:01:04;;;;;;;;;;;18.60;69.40;;;;;;490133;242;1323;-44
2021/09/11 03:03:05;;;;;;;;;;;18.60;69.40;;;;;;490397;242;1190;-43
2021/09/11 03:05:07;;;;;;;;;;;18.60;69.40;;;;;;490189;242;1080;-44
2021/09/11 03:07:08;;;;;;;;;;;18.60;69.30;;;;;;490549;242;1222;-43
2021/09/11 03:09:09;;;;;;;;;;;18.60;69.40;;;;;;490243;242;1204;-44
2021/09/11 03:11:11;;;;;;;;;;;18.60;69.40;;;;;;490587;242;2142;-43
2021/09/11 03:13:12;;;;;;;;;;;18.60;69.50;;;;;;490163;242;1127;-43
2021/09/11 03:15:13;;;;;;;;;;;18.60;69.40;;;;;;490609;242;1085;-44
2021/09/11 03:17:15;;;;;;;;;;;18.60;69.40;;;;;;490594;242;1172;-42
2021/09/11 03:19:16;;;;;;;;;;;18.60;69.40;;;;;;490645;242;1040;-43
2021/09/11 03:21:17;;;;;;;;;;;18.60;69.40;;;;;;490558;242;1360;-44
2021/09/11 03:23:19;;;;;;;;;;;18.50;69.50;;;;;;490493;242;1232;-43
2021/09/11 03:25:20;;;;;;;;;;;18.50;69.50;;;;;;490217;242;1220;-43
2021/09/11 03:27:21;;;;;;;;;;;18.60;69.50;;;;;;490086;242;1188;-43
2021/09/11 03:29:23;;;;;;;;;;;18.60;69.50;;;;;;490191;242;1133;-43
2021/09/11 03:31:24;;;;;;;;;;;18.60;69.50;;;;;;490603;242;2101;-43
2021/09/11 03:33:26;;;;;;;;;;;18.60;69.40;;;;;;490137;242;1180;-42
2021/09/11 03:35:28;;;;;;;;;;;18.50;69.60;;;;;;490249;242;1224;-44
2021/09/11 03:37:28;;;;;;;;;;;18.50;69.60;;;;;;490034;242;2144;-43
2021/09/11 03:39:30;;;;;;;;;;;18.50;69.50;;;;;;490475;242;1193;-43
2021/09/11 03:41:31;;;;;;;;;;;18.60;69.50;;;;;;490587;242;1144;-43
2021/09/11 03:43:32;;;;;;;;;;;18.60;69.40;;;;;;490467;242;1167;-44
2021/09/11 03:45:33;;;;;;;;;;;18.60;69.40;;;;;;490479;242;1073;-43
2021/09/11 03:47:35;;;;;;;;;;;18.60;69.40;;;;;;490568;242;1248;-43
2021/09/11 03:49:36;;;;;;;;;;;18.60;69.40;;;;;;490167;242;1201;-43
2021/09/11 03:51:37;;;;;;;;;;;18.50;69.50;;;;;;490571;242;2148;-43
2021/09/11 03:53:39;;;;;;;;;;;18.50;69.60;;;;;;490612;242;1102;-43
2021/09/11 03:55:40;;;;;;;;;;;18.50;69.50;;;;;;490613;242;1312;-43
2021/09/11 03:57:42;;;;;;;;;;;18.60;69.40;;;;;;490219;242;1239;-43
2021/09/11 03:59:43;;;;;;;;;;;18.60;69.50;;;;;;490649;242;1190;-44
2021/09/11 04:01:44;;;;;;;;;;;18.50;69.40;;;;;;490204;242;1303;-43
2021/09/11 04:03:46;;;;;;;;;;;18.50;69.60;;;;;;490186;242;1056;-43
2021/09/11 04:05:47;;;;;;;;;;;18.50;69.50;;;;;;490552;242;1239;-44
2021/09/11 04:07:48;;;;;;;;;;;18.50;69.50;;;;;;490087;242;1240;-43
2021/09/11 04:09:50;;;;;;;;;;;18.50;69.60;;;;;;490146;242;1065;-43
2021/09/11 04:11:51;;;;;;;;;;;18.50;69.40;;;;;;490568;242;2121;-43
2021/09/11 04:13:52;;;;;;;;;;;18.50;69.40;;;;;;490621;242;1234;-44
2021/09/11 04:15:54;;;;;;;;;;;18.50;69.60;;;;;;490490;242;991;-43
2021/09/11 04:17:55;;;;;;;;;;;18.50;69.50;;;;;;490243;242;1173;-42
2021/09/11 04:19:56;;;;;;;;;;;18.50;69.60;;;;;;490447;242;1054;-43
2021/09/11 04:21:58;;;;;;;;;;;18.50;69.50;;;;;;490228;242;1322;-44
2021/09/11 04:24:03;;;;;;;;;;;18.60;69.40;;;;;;490600;242;1043;-43
2021/09/11 04:26:00;;;;;;;;;;;18.50;69.40;;;;;;490268;243;2420;-43
2021/09/11 04:28:02;;;;;;;;;;;18.50;69.40;;;;;;490368;242;1195;-43
2021/09/11 04:30:03;;;;;;;;;;;18.50;69.40;;;;;;490650;242;1071;-43
2021/09/11 04:32:04;;;;;;;;;;;18.50;69.50;;;;;;490159;242;2196;-43
2021/09/11 04:34:05;;;;;;;;;;;18.50;69.50;;;;;;490567;242;1064;-43
2021/09/11 04:36:07;;;;;;;;;;;18.50;69.50;;;;;;490025;242;1198;-44
2021/09/11 04:38:09;;;;;;;;;;;18.40;69.60;;;;;;490602;242;1076;-43
2021/09/11 04:40:10;;;;;;;;;;;18.50;69.60;;;;;;490624;242;1051;-43
2021/09/11 04:42:11;;;;;;;;;;;18.50;69.60;;;;;;490098;242;1487;-43
2021/09/11 04:44:12;;;;;;;;;;;18.50;69.50;;;;;;490547;242;1184;-44
2021/09/11 04:46:14;;;;;;;;;;;18.40;69.60;;;;;;490555;242;1734;-43
2021/09/11 04:48:16;;;;;;;;;;;18.50;69.50;;;;;;490271;242;1155;-44
2021/09/11 04:50:18;;;;;;;;;;;18.50;69.70;;;;;;490095;242;2176;-44
2021/09/11 04:52:18;;;;;;;;;;;18.50;69.60;;;;;;490177;243;2189;-44
2021/09/11 04:54:19;;;;;;;;;;;18.40;69.60;;;;;;490553;242;1706;-43
2021/09/11 04:56:21;;;;;;;;;;;18.50;69.50;;;;;;490360;242;1219;-43
2021/09/11 04:58:22;;;;;;;;;;;18.50;69.50;;;;;;490525;242;1249;-43
2021/09/11 05:00:23;;;;;;;;;;;18.50;69.50;;;;;;490603;242;1254;-44
2021/09/11 05:02:25;;;;;;;;;;;18.40;69.50;;;;;;490548;242;1091;-44
2021/09/11 05:04:26;;;;;;;;;;;18.50;69.60;;;;;;490092;242;1043;-43
2021/09/11 05:06:27;;;;;;;;;;;18.40;69.60;;;;;;490040;242;1390;-43
2021/09/11 05:08:29;;;;;;;;;;;18.40;69.60;;;;;;490394;242;1051;-43
2021/09/11 05:10:30;;;;;;;;;;;18.40;69.60;;;;;;490349;242;1143;-43
2021/09/11 05:12:31;;;;;;;;;;;18.40;69.70;;;;;;490024;242;2204;-43
2021/09/11 05:14:33;;;;;;;;;;;18.40;69.70;;;;;;490540;242;1109;-43
2021/09/11 05:16:34;;;;;;;;;;;18.50;69.60;;;;;;490046;242;1327;-43
2021/09/11 05:18:36;;;;;;;;;;;18.40;69.70;;;;;;490132;242;1376;-43
2021/09/11 05:20:37;;;;;;;;;;;18.40;69.70;;;;;;490464;243;2227;-43
2021/09/11 05:22:38;;;;;;;;;;;18.40;69.70;;;;;;490492;242;1158;-43
2021/09/11 05:24:39;;;;;;;;;;;18.50;69.70;;;;;;490633;242;1034;-43
2021/09/11 05:26:41;;;;;;;;;;;18.50;69.60;;;;;;490063;242;1185;-43
2021/09/11 05:28:42;;;;;;;;;;;18.40;69.70;;;;;;490491;242;1084;-43
2021/09/11 05:30:43;;;;;;;;;;;18.40;69.60;;;;;;490433;242;1361;-43
2021/09/11 05:32:45;;;;;;;;;;;18.40;69.70;;;;;;490159;242;2181;-43
2021/09/11 05:34:46;;;;;;;;;;;18.40;69.60;;;;;;490129;242;1109;-43
2021/09/11 05:36:49;;;;;;;;;;;18.40;69.70;;;;;;490187;242;1488;-44
2021/09/11 05:38:49;;;;;;;;;;;18.40;69.70;;;;;;490527;243;1895;-43
2021/09/11 05:40:50;;;;;;;;;;;18.40;69.70;;;;;;490233;242;1337;-44
2021/09/11 05:42:51;;;;;;;;;;;18.40;69.70;;;;;;490451;242;1210;-43
2021/09/11 05:44:55;;;;;;;;;;;18.40;69.70;;;;;;490475;242;1195;-44
2021/09/11 05:46:54;;;;;;;;;;;18.40;69.70;;;;;;490006;242;2063;-43
2021/09/11 05:48:55;;;;;;;;;;;18.40;69.70;;;;;;490593;242;1234;-44
2021/09/11 05:50:57;;;;;;;;;;;18.40;69.70;;;;;;490547;242;1151;-43
2021/09/11 05:52:58;;;;;;;;;;;18.40;69.70;;;;;;490559;242;2121;-44
2021/09/11 05:54:59;;;;;;;;;;;18.40;69.70;;;;;;490587;242;970;-43
2021/09/11 05:57:01;;;;;;;;;;;18.40;69.80;;;;;;490030;242;1234;-43
2021/09/11 05:59:02;;;;;;;;;;;18.40;69.80;;;;;;490312;243;1094;-43
2021/09/11 06:01:03;;;;;;;;;;;18.40;69.70;;;;;;490073;242;1201;-43
2021/09/11 06:03:06;;;;;;;;;;;18.40;69.70;;;;;;490119;242;1187;-43
2021/09/11 06:05:06;;;;;;;;;;;18.40;69.70;;;;;;490042;243;2164;-43
2021/09/11 06:07:07;;;;;;;;;;;18.40;69.70;;;;;;490233;242;1206;-43
2021/09/11 06:09:09;;;;;;;;;;;18.40;69.70;;;;;;490314;242;1241;-43
2021/09/11 06:11:10;;;;;;;;;;;18.40;69.80;;;;;;490245;242;1566;-42
2021/09/11 06:13:11;;;;;;;;;;;18.40;69.90;;;;;;490518;242;2168;-43
2021/09/11 06:15:13;;;;;;;;;;;18.40;69.70;;;;;;490623;242;1230;-44
2021/09/11 06:17:14;;;;;;;;;;;18.40;69.60;;;;;;490526;242;1121;-44
2021/09/11 06:19:15;;;;;;;;;;;18.40;69.60;;;;;;490137;242;1174;-43
2021/09/11 06:21:17;;;;;;;;;;;18.40;69.70;;;;;;490391;242;1226;-44
2021/09/11 06:23:18;;;;;;;;;;;18.40;69.80;;;;;;490127;242;1030;-44
2021/09/11 06:25:19;;;;;;;;;;;18.40;69.80;;;;;;490571;242;1070;-43
2021/09/11 06:27:21;;;;;;;;;;;18.30;69.80;;;;;;490102;242;1054;-43
2021/09/11 06:29:22;;;;;;;;;;;18.40;69.80;;;;;;490204;242;1250;-44
2021/09/11 06:31:23;;;;;;;;;;;18.30;69.80;;;;;;490239;242;1103;-44
2021/09/11 06:33:25;;;;;;;;;;;18.40;69.80;;;;;;490531;242;2129;-44
2021/09/11 06:35:26;;;;;;;;;;;18.40;69.70;;;;;;490272;242;1042;-44
2021/09/11 06:37:27;;;;;;;;;;;18.40;69.60;;;;;;490115;242;1291;-43
2021/09/11 06:39:29;;;;;;;;;;;18.30;69.80;;;;;;490313;242;1147;-43
2021/09/11 06:41:30;;;;;;;;;;;18.30;69.90;;;;;;490566;242;999;-43
2021/09/11 06:43:31;;;;;;;;;;;18.30;69.80;;;;;;490551;242;994;-43
2021/09/11 06:45:33;;;;;;;;;;;18.40;69.80;;;;;;490150;242;1071;-44
2021/09/11 06:47:34;;;;;;;;;;;18.40;69.70;;;;;;490028;242;1242;-44
2021/09/11 06:49:35;;;;;;;;;;;18.40;69.80;;;;;;490090;242;1009;-44
2021/09/11 06:51:37;;;;;;;;;;;18.40;69.70;;;;;;490498;242;1217;-43
2021/09/11 06:53:38;;;;;;;;;;;18.40;69.70;;;;;;490598;242;2102;-43
2021/09/11 06:55:39;;;;;;;;;;;18.40;69.80;;;;;;490135;242;1191;-43
2021/09/11 06:57:41;;;;;;;;;;;18.40;69.70;;;;;;490544;242;1226;-44
2021/09/11 06:59:42;;;;;;;;;;;18.30;69.70;;;;;;490524;242;1197;-43
2021/09/11 07:01:43;;;;;;;;;;;18.40;69.70;;;;;;490520;242;1424;-43
2021/09/11 07:03:45;;;;;;;;;;;18.30;69.80;;;;;;490358;242;1196;-43
2021/09/11 07:05:46;;;;;;;;;;;18.40;69.80;;;;;;490099;242;2255;-43
2021/09/11 07:07:47;;;;;;;;;;;18.30;69.70;;;;;;490535;242;1160;-44
2021/09/11 07:09:48;;;;;;;;;;;18.40;69.80;;;;;;490162;242;1055;-43
2021/09/11 07:11:50;;;;;;;;;;;18.40;69.60;;;;;;490430;242;1271;-43
2021/09/11 07:13:51;;;;;;;;;;;18.40;69.70;;;;;;490147;242;2174;-43
2021/09/11 07:15:52;;;;;;;;;;;18.30;69.70;;;;;;490115;242;1050;-43
2021/09/11 07:17:55;;;;;;;;;;;18.40;69.80;;;;;;490097;242;1289;-44
2021/09/11 07:19:55;;;;;;;;;;;18.40;69.80;;;;;;490569;243;2181;-43
2021/09/11 07:21:56;;;;;;;;;;;18.40;69.70;;;;;;490368;242;1183;-43
2021/09/11 07:23:58;;;;;;;;;;;18.40;69.70;;;;;;490091;242;1213;-43
2021/09/11 07:25:59;;;;;;;;;;;18.30;69.80;;;;;;490385;242;1205;-44
2021/09/11 07:28:00;;;;;;;;;;;18.40;69.80;;;;;;490525;242;1372;-43
2021/09/11 07:30:02;;;;;;;;;;;18.30;69.70;;;;;;490270;242;1355;-43
2021/09/11 07:32:04;;;;;;;;;;;18.30;69.70;;;;;;490080;242;1190;-43
2021/09/11 07:34:04;;;;;;;;;;;18.30;69.80;;;;;;490074;242;2181;-43
2021/09/11 07:36:06;;;;;;;;;;;18.30;69.80;;;;;;490474;242;1477;-43
2021/09/11 07:38:08;;;;;;;;;;;18.30;69.90;;;;;;490146;242;1144;-43
2021/09/11 07:40:09;;;;;;;;;;;18.30;69.90;;;;;;490568;242;2302;-44
2021/09/11 07:42:10;;;;;;;;;;;18.30;69.80;;;;;;490531;242;1109;-43
2021/09/11 07:44:12;;;;;;;;;;;18.30;69.80;;;;;;490611;242;1071;-44
2021/09/11 07:46:13;;;;;;;;;;;18.30;69.90;;;;;;490159;242;1201;-43
2021/09/11 07:48:14;;;;;;;;;;;18.30;69.90;;;;;;490345;242;1137;-43
2021/09/11 07:50:16;;;;;;;;;;;18.30;69.80;;;;;;490493;242;1036;-43
2021/09/11 07:52:17;;;;;;;;;;;18.30;69.90;;;;;;490548;243;2192;-44
2021/09/11 07:54:18;;;;;;;;;;;18.30;69.90;;;;;;490283;242;1093;-43
2021/09/11 07:56:20;;;;;;;;;;;18.30;69.80;;;;;;490109;242;1225;-43
2021/09/11 07:58:21;;;;;;;;;;;18.40;69.80;;;;;;490102;242;1241;-43
2021/09/11 08:00:23;;;;;;;;;;;18.30;69.80;;;;;;490504;242;1071;-43
2021/09/11 08:02:24;;;;;;;;;;;18.30;69.80;;;;;;490251;242;1336;-43
2021/09/11 08:04:25;;;;;;;;;;;18.30;69.90;;;;;;490189;242;1044;-43
2021/09/11 08:06:27;;;;;;;;;;;18.30;69.80;;;;;;490099;242;1173;-43
2021/09/11 08:08:28;;;;;;;;;;;18.30;69.80;;;;;;490597;242;1232;-44
2021/09/11 08:10:29;;;;;;;;;;;18.30;69.90;;;;;;490258;242;1199;-43
2021/09/11 08:12:30;;;;;;;;;;;18.30;69.90;;;;;;490381;242;2189;-43
2021/09/11 08:14:32;;;;;;;;;;;18.30;70.00;;;;;;490149;242;1178;-43
2021/09/11 08:16:33;;;;;;;;;;;18.30;70.00;;;;;;490253;242;1340;-43
2021/09/11 08:18:34;;;;;;;;;;;18.20;70.00;;;;;;490502;242;1138;-44
2021/09/11 08:20:36;;;;;;;;;;;18.30;70.00;;;;;;490546;242;1238;-43
2021/09/11 08:22:37;;;;;;;;;;;18.20;70.00;;;;;;490063;242;1153;-44
2021/09/11 08:24:39;;;;;;;;;;;18.30;70.00;;;;;;490310;242;1152;-44
2021/09/11 08:26:40;;;;;;;;;;;18.30;69.90;;;;;;490153;242;1305;-44
2021/09/11 08:28:41;;;;;;;;;;;18.30;69.90;;;;;;490557;242;1021;-43
2021/09/11 08:30:43;;;;;;;;;;;18.30;69.90;;;;;;490079;242;1230;-43
2021/09/11 08:32:44;;;;;;;;;;;18.30;70.00;;;;;;490514;242;2200;-44
2021/09/11 08:34:45;;;;;;;;;;;18.20;70.00;;;;;;490398;242;1059;-43
2021/09/11 08:36:47;;;;;;;;;;;18.20;70.10;;;;;;490532;242;1144;-43
2021/09/11 08:38:48;;;;;;;;;;;18.20;70.00;;;;;;490545;242;1036;-44
2021/09/11 08:40:49;;;;;;;;;;;18.30;69.90;;;;;;490077;242;1361;-44
2021/09/11 08:42:51;;;;;;;;;;;18.30;70.00;;;;;;490305;242;1137;-43
2021/09/11 08:44:52;;;;;;;;;;;18.20;70.00;;;;;;490080;242;1171;-44
2021/09/11 08:46:53;;;;;;;;;;;18.30;69.90;;;;;;490357;242;1378;-43
2021/09/11 08:48:55;;;;;;;;;;;18.30;70.00;;;;;;490323;242;1267;-43
2021/09/11 08:50:56;;;;;;;;;;;18.30;70.00;;;;;;490272;242;1376;-43
2021/09/11 08:52:58;;;;;;;;;;;18.20;70.00;;;;;;490187;242;2158;-43
2021/09/11 08:54:59;;;;;;;;;;;18.30;70.00;;;;;;490483;242;1048;-43
2021/09/11 08:57:00;;;;;;;;;;;18.20;69.90;;;;;;490038;242;1263;-43
2021/09/11 08:59:01;;;;;;;;;;;18.20;70.00;;;;;;490606;242;1317;-44
2021/09/11 09:01:03;;;;;;;;;;;18.30;69.90;;;;;;490475;242;1219;-44
2021/09/11 09:03:04;;;;;;;;;;;18.30;69.90;;;;;;490220;242;1173;-43
2021/09/11 09:05:06;;;;;;;;;;;18.20;70.00;;;;;;490250;242;1062;-44
2021/09/11 09:07:07;;;;;;;;;;;18.30;70.00;;;;;;490017;242;1641;-43
2021/09/11 09:09:09;;;;;;;;;;;18.30;70.00;;;;;;490546;242;1082;-44
2021/09/11 09:11:09;;;;;;;;;;;18.20;70.10;;;;;;490246;243;1331;-43
2021/09/11 09:13:11;;;;;;;;;;;18.30;70.00;;;;;;490352;242;2181;-44
2021/09/11 09:15:12;;;;;;;;;;;18.20;69.90;;;;;;490609;242;1159;-43
2021/09/11 09:17:13;;;;;;;;;;;18.20;69.90;;;;;;490200;242;1349;-43
2021/09/11 09:19:15;;;;;;;;;;;18.30;70.00;;;;;;490183;242;1025;-43
2021/09/11 09:21:16;;;;;;;;;;;18.20;69.90;;;;;;490553;242;1233;-43
2021/09/11 09:23:18;;;;;;;;;;;18.20;70.00;;;;;;490097;242;1300;-43
2021/09/11 09:25:19;;;;;;;;;;;18.20;70.00;;;;;;490392;242;1042;-43
2021/09/11 09:27:20;;;;;;;;;;;18.20;69.90;;;;;;490313;242;1219;-43
2021/09/11 09:29:21;;;;;;;;;;;18.30;69.90;;;;;;490571;242;1106;-43
2021/09/11 09:31:23;;;;;;;;;;;18.20;70.10;;;;;;490052;242;1394;-44
2021/09/11 09:33:25;;;;;;;;;;;18.20;70.00;;;;;;490323;242;2149;-43
2021/09/11 09:35:25;;;;;;;;;;;18.30;70.00;;;;;;490120;242;1821;-43
2021/09/11 09:37:27;;;;;;;;;;;18.30;69.90;;;;;;490050;242;1205;-43
2021/09/11 09:39:28;;;;;;;;;;;18.30;69.90;;;;;;490573;242;1065;-44
2021/09/11 09:41:29;;;;;;;;;;;18.20;70.00;;;;;;490114;242;1296;-43
2021/09/11 09:43:30;;;;;;;;;;;18.20;70.00;;;;;;490144;242;1219;-43
2021/09/11 09:45:32;;;;;;;;;;;18.20;70.10;;;;;;490556;242;1240;-43
2021/09/11 09:47:33;;;;;;;;;;;18.20;70.10;;;;;;490256;242;1202;-44
2021/09/11 09:49:35;;;;;;;;;;;18.20;70.10;;;;;;490465;242;1145;-43
2021/09/11 09:51:36;;;;;;;;;;;18.20;70.10;;;;;;490343;242;1392;-43
2021/09/11 09:53:37;;;;;;;;;;;18.20;70.10;;;;;;490276;242;2180;-43
2021/09/11 09:55:39;;;;;;;;;;;18.20;70.10;;;;;;490130;242;1170;-43
2021/09/11 09:57:41;;;;;;;;;;;18.20;70.10;;;;;;490545;242;1153;-43
2021/09/11 09:59:43;;;;;;;;;;;18.20;70.20;;;;;;490268;242;1170;-44
2021/09/11 10:01:49;;;;;;;;;;;18.20;70.10;;;;;;490185;242;1694;-42
2021/09/11 10:03:46;;;;;;;;;;;18.20;70.00;;;;;;489813;243;1341;-43
2021/09/11 10:05:47;;;;;;;;;;;18.20;70.10;;;;;;490275;242;1274;-44
2021/09/11 10:07:49;;;;;;;;;;;18.20;70.00;;;;;;490515;242;1193;-43
2021/09/11 10:09:50;;;;;;;;;;;18.20;70.10;;;;;;490115;242;1199;-43
2021/09/11 10:11:51;;;;;;;;;;;18.20;70.00;;;;;;490094;242;1082;-43
2021/09/11 10:13:53;;;;;;;;;;;18.20;69.90;;;;;;490547;242;2169;-43
2021/09/11 10:15:54;;;;;;;;;;;18.20;70.00;;;;;;490207;242;1104;-43
2021/09/11 10:17:55;;;;;;;;;;;18.20;70.20;;;;;;490101;241;1195;-43
2021/09/11 10:19:57;;;;;;;;;;;18.10;70.10;;;;;;490439;242;1144;-43
2021/09/11 10:21:58;;;;;;;;;;;18.20;70.10;;;;;;490580;242;1060;-43
2021/09/11 10:23:59;;;;;;;;;;;18.20;70.00;;;;;;490550;242;1158;-44
2021/09/11 10:26:01;;;;;;;;;;;18.20;70.10;;;;;;490374;242;1129;-44
2021/09/11 10:28:02;;;;;;;;;;;18.20;70.10;;;;;;490540;242;1195;-43
2021/09/11 10:30:03;;;;;;;;;;;18.20;70.10;;;;;;490506;242;1184;-43
2021/09/11 10:32:05;;;;;;;;;;;18.20;70.00;;;;;;490091;242;1187;-43
2021/09/11 10:34:06;;;;;;;;;;;18.20;70.10;;;;;;490213;242;2193;-44
2021/09/11 10:36:08;;;;;;;;;;;18.20;70.10;;;;;;490473;242;1171;-43
2021/09/11 10:38:09;;;;;;;;;;;18.10;70.10;;;;;;490102;242;1510;-43
2021/09/11 10:40:10;;;;;;;;;;;18.20;70.00;;;;;;490593;242;1036;-43
2021/09/11 10:42:12;;;;;;;;;;;18.20;70.00;;;;;;490243;242;1300;-43
2021/09/11 10:44:13;;;;;;;;;;;18.20;70.00;;;;;;490318;242;1050;-43
2021/09/11 10:46:14;;;;;;;;;;;18.20;70.20;;;;;;490385;242;1621;-43
2021/09/11 10:48:16;;;;;;;;;;;18.20;70.10;;;;;;490051;242;1195;-43
2021/09/11 10:50:19;;;;;;;;;;;18.20;70.00;;;;;;490075;242;1049;-43
2021/09/11 10:52:18;;;;;;;;;;;18.20;70.20;;;;;;490020;243;2040;-44
2021/09/11 10:54:19;;;;;;;;;;;18.10;70.10;;;;;;490550;242;2180;-43
2021/09/11 10:56:21;;;;;;;;;;;18.20;70.20;;;;;;490294;242;1330;-45
2021/09/11 10:58:22;;;;;;;;;;;18.20;70.10;;;;;;490257;242;1158;-44
2021/09/11 11:00:24;;;;;;;;;;;18.20;70.10;;;;;;490258;242;1207;-43
2021/09/11 11:02:25;;;;;;;;;;;18.20;70.10;;;;;;490011;242;1158;-43
2021/09/11 11:04:26;;;;;;;;;;;18.20;70.00;;;;;;490105;242;1086;-43
2021/09/11 11:06:28;;;;;;;;;;;18.20;70.10;;;;;;490023;242;1326;-44
2021/09/11 11:08:29;;;;;;;;;;;18.20;70.10;;;;;;490226;242;1224;-44
2021/09/11 11:10:30;;;;;;;;;;;18.20;70.00;;;;;;490112;242;1117;-44
2021/09/11 11:12:32;;;;;;;;;;;18.20;70.10;;;;;;490088;242;1275;-44
2021/09/11 11:14:33;;;;;;;;;;;18.20;70.20;;;;;;490335;242;2117;-43
2021/09/11 11:16:34;;;;;;;;;;;18.20;70.10;;;;;;490476;242;1281;-43
2021/09/11 11:18:36;;;;;;;;;;;18.10;70.10;;;;;;490454;242;1161;-43
2021/09/11 11:20:37;;;;;;;;;;;18.10;70.10;;;;;;490539;242;1368;-43
2021/09/11 11:22:39;;;;;;;;;;;18.20;70.10;;;;;;490482;242;1220;-43
2021/09/11 11:24:40;;;;;;;;;;;18.10;70.00;;;;;;490154;242;987;-43
2021/09/11 11:26:41;;;;;;;;;;;18.20;70.10;;;;;;490380;242;1303;-43
2021/09/11 11:28:43;;;;;;;;;;;18.10;70.10;;;;;;490129;242;1115;-43
2021/09/11 11:30:44;;;;;;;;;;;18.10;70.10;;;;;;490062;242;1190;-43
2021/09/11 11:32:45;;;;;;;;;;;18.10;70.20;;;;;;490533;242;1203;-43
2021/09/11 11:34:47;;;;;;;;;;;18.10;70.40;;;;;;490517;242;2125;-44
2021/09/11 11:36:48;;;;;;;;;;;18.10;70.30;;;;;;490087;242;1325;-43
2021/09/11 11:38:49;;;;;;;;;;;18.10;70.10;;;;;;490595;242;1220;-43
2021/09/11 11:40:51;;;;;;;;;;;18.10;70.10;;;;;;490264;242;1311;-43
2021/09/11 11:42:52;;;;;;;;;;;18.10;70.30;;;;;;490050;242;1385;-43
2021/09/11 11:44:53;;;;;;;;;;;18.10;70.10;;;;;;490144;242;1160;-44
2021/09/11 11:46:54;;;;;;;;;;;18.10;70.10;;;;;;490074;242;1355;-44
2021/09/11 11:48:56;;;;;;;;;;;18.10;70.10;;;;;;490187;242;1054;-44
2021/09/11 11:50:57;;;;;;;;;;;18.10;70.30;;;;;;490165;242;1223;-42
2021/09/11 11:52:58;;;;;;;;;;;18.10;70.20;;;;;;490145;242;1199;-43
2021/09/11 11:55:00;;;;;;;;;;;18.10;70.20;;;;;;490339;242;2196;-43
2021/09/11 11:57:01;;;;;;;;;;;18.10;70.10;;;;;;490086;242;1545;-43